Terminal Aerodrome Forecast
Issued by NWS Cleveland, OH

Home | Current Version | Previous Version | Graphics & Text | Print | Product List | Glossary On
Versions: 1 2 3 4 5 6 7 8 9 10 11 12 13 14 15 16 17 18 19 20
000
FTUS41 KCLE 302333
TAFMFD
TAF
KMFD 302333Z 0100/0124 24007KT P6SM VCTS SCT040CB
     FM010500 25008KT 6SM BR SCT015 BKN050
     FM010900 25006KT 4SM BR OVC007
     FM011500 28008KT P6SM OVC015
     FM011800 29006KT P6SM BKN035=

USA.gov is the U.S. government's official web portal to all federal, state and local government web resources and services.